Terminal Aerodrome Forecast
Issued by NWS Brownsville, TX

Home | Current Version | Previous Version | Text Only | Print | Product List | Glossary On
Versions: 1 2 3 4 5 6 7 8 9 10 11 12 13 14 15
000
FTUS44 KBRO 201120
TAFMFE
TAF
KMFE 201120Z 2012/2112 10005KT P6SM SKC
     FM201400 14008KT P6SM FEW040
     FM202000 13012KT P6SM FEW050
     FM210400 14005KT P6SM FEW025=

USA.gov is the U.S. government's official web portal to all federal, state and local government web resources and services.